Time;durP1;ratioP1;P1;durP2;ratioP2;P2;SDS_P1;SDS_P2;PMS_P1;PMS_P2;Temp;Humidity;BMP_temperature;BMP_pressure;BME280_temperature;BME280_humidity;BME280_pressure;Samples;Min_cycle;Max_cycle;Signal;HPM_P1;HPM_P2
2022/05/15 00:02:13;;;;;;;6.60;2.83;;;13.30;99.90;;;;;;5068172;28;20085;-60
2022/05/15 00:04:39;;;;;;;6.90;3.40;;;13.20;99.90;;;;;;5067872;28;20040;-60
2022/05/15 00:07:05;;;;;;;8.35;3.35;;;13.30;99.90;;;;;;5069957;28;20397;-60
2022/05/15 00:09:31;;;;;;;4.18;2.70;;;13.30;99.90;;;;;;5071074;28;20108;-60
2022/05/15 00:11:57;;;;;;;6.60;3.25;;;13.20;99.90;;;;;;5070738;28;20131;-60
2022/05/15 00:14:22;;;;;;;6.43;2.90;;;13.30;99.90;;;;;;5070839;28;20025;-60
2022/05/15 00:16:48;;;;;;;4.93;2.63;;;13.30;99.90;;;;;;5066885;28;20024;-60
2022/05/15 00:19:14;;;;;;;6.07;3.22;;;13.30;99.90;;;;;;5070980;28;20079;-60
2022/05/15 00:21:40;;;;;;;8.13;3.03;;;13.40;99.90;;;;;;5070756;28;20056;-60
2022/05/15 00:24:06;;;;;;;4.18;2.85;;;13.40;99.90;;;;;;5070660;28;20085;-60
2022/05/15 00:26:35;;;;;;;4.45;2.80;;;13.40;99.90;;;;;;5070288;28;20027;-60
2022/05/15 00:29:01;;;;;;;6.43;3.08;;;13.40;99.90;;;;;;5070337;28;20028;-60
2022/05/15 00:31:27;;;;;;;11.05;3.47;;;13.40;99.90;;;;;;5070616;28;20104;-60
2022/05/15 00:33:53;;;;;;;7.40;3.20;;;13.50;99.90;;;;;;5070414;28;20071;-60
2022/05/15 00:36:19;;;;;;;4.93;2.95;;;13.50;99.90;;;;;;5070297;28;20491;-59
2022/05/15 00:38:45;;;;;;;7.07;2.72;;;13.50;99.90;;;;;;5070634;28;20025;-59
2022/05/15 00:41:11;;;;;;;5.05;2.67;;;13.50;99.90;;;;;;5070339;28;20024;-59
2022/05/15 00:43:50;;;;;;;3.97;2.63;;;13.50;99.90;;;;;;5070154;28;20034;-59
2022/05/15 00:46:26;;;;;;;4.53;2.75;;;13.50;99.90;;;;;;5070227;28;20484;-59
2022/05/15 00:48:53;;;;;;;3.28;2.38;;;13.50;99.90;;;;;;5069621;28;20091;-59
2022/05/15 00:51:22;;;;;;;8.93;2.90;;;13.50;99.90;;;;;;5070170;28;20056;-59
2022/05/15 00:53:51;;;;;;;5.40;2.88;;;13.40;99.90;;;;;;5070267;28;20038;-58
2022/05/15 00:56:21;;;;;;;5.32;2.78;;;13.40;99.90;;;;;;5069928;28;20358;-59
2022/05/15 00:58:52;;;;;;;5.15;2.80;;;13.30;99.90;;;;;;5070337;28;20039;-59
2022/05/15 01:01:18;;;;;;;3.38;1.73;;;13.30;99.90;;;;;;5069794;28;20036;-59
2022/05/15 01:03:45;;;;;;;6.60;1.95;;;13.30;99.90;;;;;;5066825;28;20090;-59
2022/05/15 01:06:10;;;;;;;5.88;2.53;;;13.50;99.90;;;;;;5067011;28;20149;-61
2022/05/15 01:08:36;;;;;;;2.92;1.92;;;13.60;99.90;;;;;;5069723;28;20058;-61
2022/05/15 01:11:10;;;;;;;4.75;2.20;;;13.60;99.90;;;;;;5069781;28;20029;-61
2022/05/15 01:13:38;;;;;;;3.83;2.05;;;13.70;99.90;;;;;;5070222;28;20078;-60
2022/05/15 01:16:05;;;;;;;5.97;3.00;;;13.70;99.90;;;;;;5070036;28;20020;-60
2022/05/15 01:18:34;;;;;;;4.68;2.63;;;13.80;99.90;;;;;;5069978;28;20017;-60
2022/05/15 01:21:02;;;;;;;5.60;3.05;;;13.80;99.90;;;;;;5069840;28;20519;-60
2022/05/15 01:23:29;;;;;;;7.43;2.75;;;13.80;99.90;;;;;;5069693;28;20029;-60
2022/05/15 01:25:57;;;;;;;4.95;2.65;;;13.80;99.90;;;;;;5069709;28;20115;-60
2022/05/15 01:28:25;;;;;;;6.53;2.50;;;13.90;99.90;;;;;;5069437;28;20056;-60
2022/05/15 01:30:54;;;;;;;7.50;2.67;;;13.90;99.90;;;;;;5070002;28;20036;-60
2022/05/15 01:33:20;;;;;;;3.92;2.28;;;13.90;99.90;;;;;;5069785;28;20115;-60
2022/05/15 01:35:46;;;;;;;6.53;2.50;;;13.90;99.90;;;;;;5069570;28;20095;-60
2022/05/15 01:38:12;;;;;;;6.28;2.90;;;14.00;99.90;;;;;;5069738;28;20028;-60
2022/05/15 01:40:39;;;;;;;7.10;3.42;;;14.00;99.90;;;;;;5069549;28;20023;-60
2022/05/15 01:43:06;;;;;;;5.80;2.33;;;14.10;99.90;;;;;;5069526;28;20036;-60
2022/05/15 01:45:32;;;;;;;8.13;2.70;;;14.20;99.90;;;;;;5065818;28;20024;-59
2022/05/15 01:47:58;;;;;;;6.25;2.90;;;14.20;99.90;;;;;;5049938;28;20489;-59
2022/05/15 01:50:24;;;;;;;5.32;2.75;;;14.30;99.90;;;;;;5064543;28;20055;-60
2022/05/15 01:52:50;;;;;;;5.63;2.33;;;14.40;99.90;;;;;;5066635;28;20082;-60
2022/05/15 01:55:15;;;;;;;5.50;2.85;;;14.40;99.90;;;;;;5066459;28;20079;-60
2022/05/15 01:57:41;;;;;;;6.85;2.38;;;14.50;99.90;;;;;;5051371;28;20411;-60
2022/05/15 02:00:12;;;;;;;7.25;2.80;;;14.50;99.90;;;;;;5046690;28;20025;-60
2022/05/15 02:02:39;;;;;;;4.82;2.83;;;14.60;99.90;;;;;;5046842;28;20029;-60
2022/05/15 02:05:05;;;;;;;6.43;2.88;;;14.50;99.90;;;;;;5046079;28;20021;-60
2022/05/15 02:07:31;;;;;;;6.93;2.50;;;14.50;99.90;;;;;;5046437;28;20040;-60
2022/05/15 02:09:57;;;;;;;5.28;2.42;;;14.60;99.90;;;;;;5046194;28;20044;-60
2022/05/15 02:12:22;;;;;;;6.28;2.70;;;14.50;99.90;;;;;;5062393;28;20485;-60
2022/05/15 02:14:48;;;;;;;5.40;3.53;;;14.50;99.90;;;;;;5069326;28;20028;-60
2022/05/15 02:17:13;;;;;;;9.80;2.78;;;14.60;99.90;;;;;;5066033;28;20025;-60
2022/05/15 02:19:39;;;;;;;5.13;2.47;;;14.60;99.90;;;;;;5069752;28;20048;-60
2022/05/15 02:22:05;;;;;;;9.13;2.90;;;14.60;99.90;;;;;;5069265;28;20374;-60
2022/05/15 02:24:31;;;;;;;8.10;3.17;;;14.60;99.90;;;;;;5051502;28;20396;-60
2022/05/15 02:26:56;;;;;;;6.25;2.72;;;14.60;99.90;;;;;;5069073;28;20029;-60
2022/05/15 02:29:22;;;;;;;6.22;2.75;;;14.60;99.90;;;;;;5069291;28;20035;-60
2022/05/15 02:31:48;;;;;;;8.57;2.97;;;14.50;99.90;;;;;;5069477;28;20552;-60
2022/05/15 02:34:13;;;;;;;7.80;2.55;;;14.50;99.90;;;;;;5069187;28;20412;-60
2022/05/15 02:36:39;;;;;;;8.10;2.90;;;14.40;99.90;;;;;;5069223;28;20081;-60
2022/05/15 02:39:06;;;;;;;7.43;3.78;;;14.40;99.90;;;;;;5070252;28;20035;-60
2022/05/15 02:41:33;;;;;;;7.82;3.28;;;14.40;99.90;;;;;;5072457;28;20473;-60
2022/05/15 02:43:59;;;;;;;4.05;3.00;;;14.40;99.90;;;;;;5073003;28;20033;-60
2022/05/15 02:46:25;;;;;;;8.20;3.90;;;14.40;99.90;;;;;;5072605;28;20050;-60
2022/05/15 02:51:35;;;;;;;9.20;3.28;;;14.40;99.90;;;;;;5072476;28;20031;-60
2022/05/15 02:54:00;;;;;;;4.95;3.25;;;14.40;99.90;;;;;;5072495;28;20107;-60
2022/05/15 02:56:29;;;;;;;7.15;3.42;;;14.40;99.90;;;;;;5072436;28;20027;-60
2022/05/15 02:58:55;;;;;;;8.27;3.28;;;14.30;99.90;;;;;;5072421;28;20025;-59
2022/05/15 03:01:21;;;;;;;6.93;3.38;;;14.20;99.90;;;;;;5072354;28;20035;-59
2022/05/15 03:03:47;;;;;;;7.30;3.30;;;14.20;99.90;;;;;;5072327;28;20040;-59
2022/05/15 03:06:13;;;;;;;8.90;3.38;;;14.20;99.90;;;;;;5072149;28;20427;-60
2022/05/15 03:08:44;;;;;;;7.13;3.20;;;14.10;99.90;;;;;;5072298;28;20484;-60
2022/05/15 03:11:10;;;;;;;9.88;4.43;;;14.10;99.90;;;;;;5072025;28;20055;-60
2022/05/15 03:13:36;;;;;;;9.10;3.65;;;14.10;99.90;;;;;;5072236;28;20141;-61
2022/05/15 03:16:03;;;;;;;8.75;4.03;;;14.00;99.90;;;;;;5072171;28;20116;-61
2022/05/15 03:18:29;;;;;;;5.10;3.53;;;13.90;99.90;;;;;;5072087;28;20039;-60
2022/05/15 03:20:55;;;;;;;9.35;3.78;;;13.90;99.90;;;;;;5071971;28;20095;-61
2022/05/15 03:23:20;;;;;;;4.95;2.95;;;13.80;99.90;;;;;;5072266;28;20051;-60
2022/05/15 03:25:46;;;;;;;7.13;3.33;;;13.60;99.90;;;;;;5071870;28;20082;-60
2022/05/15 03:28:12;;;;;;;5.68;3.60;;;13.50;99.90;;;;;;5072234;28;20036;-60
2022/05/15 03:30:43;;;;;;;6.50;3.22;;;13.40;99.90;;;;;;5071879;28;20059;-60
2022/05/15 03:33:09;;;;;;;7.35;3.83;;;13.30;99.90;;;;;;5072176;28;20087;-60
2022/05/15 03:35:36;;;;;;;6.07;3.20;;;13.20;99.90;;;;;;5071849;28;20056;-60
2022/05/15 03:38:02;;;;;;;6.50;3.22;;;13.10;99.90;;;;;;5071728;28;20397;-60
2022/05/15 03:40:28;;;;;;;6.60;3.58;;;13.10;99.90;;;;;;5071701;28;20571;-60
2022/05/15 03:42:54;;;;;;;6.85;3.60;;;13.10;99.90;;;;;;5071310;28;20111;-60
2022/05/15 03:45:20;;;;;;;7.22;3.78;;;13.20;99.90;;;;;;5071670;28;20029;-60
2022/05/15 03:47:48;;;;;;;8.98;3.92;;;13.20;99.90;;;;;;5071562;28;20481;-60
2022/05/15 03:50:14;;;;;;;7.43;3.55;;;13.20;99.90;;;;;;5071238;28;20044;-60
2022/05/15 03:52:41;;;;;;;5.40;3.38;;;13.20;99.90;;;;;;5071254;28;20481;-60
2022/05/15 03:55:07;;;;;;;8.55;3.67;;;13.20;99.90;;;;;;5068219;28;20025;-60
2022/05/15 03:57:33;;;;;;;5.15;3.50;;;13.20;99.90;;;;;;5070940;28;20035;-61
2022/05/15 03:59:58;;;;;;;7.70;3.78;;;13.10;99.90;;;;;;5071042;28;20025;-60
2022/05/15 04:02:25;;;;;;;9.10;3.30;;;13.20;99.90;;;;;;5071202;28;20067;-60
2022/05/15 04:04:51;;;;;;;7.95;3.85;;;13.10;99.90;;;;;;5071131;28;20069;-60
2022/05/15 04:07:16;;;;;;;12.25;4.28;;;13.10;99.90;;;;;;5071144;28;20036;-60
2022/05/15 04:09:42;;;;;;;9.73;4.10;;;13.10;99.90;;;;;;5071130;28;20036;-60
2022/05/15 04:12:12;;;;;;;7.05;3.40;;;13.00;99.90;;;;;;5070693;28;20032;-60
2022/05/15 04:14:38;;;;;;;11.23;3.53;;;13.00;99.90;;;;;;5071056;28;20036;-60
2022/05/15 04:17:05;;;;;;;6.53;3.17;;;12.90;99.90;;;;;;5068354;28;20033;-59
2022/05/15 04:19:31;;;;;;;7.05;3.72;;;12.80;99.90;;;;;;5067692;28;20505;-59
2022/05/15 04:22:02;;;;;;;9.80;3.97;;;12.70;99.90;;;;;;5069746;28;20033;-59
2022/05/15 04:24:28;;;;;;;9.02;2.92;;;12.60;99.90;;;;;;5067573;28;20024;-59
2022/05/15 04:26:53;;;;;;;8.68;3.78;;;12.60;99.90;;;;;;5070550;28;20089;-60
2022/05/15 04:29:19;;;;;;;7.43;3.60;;;12.60;99.90;;;;;;5070882;28;20103;-60
2022/05/15 04:31:45;;;;;;;8.40;3.83;;;12.60;99.90;;;;;;5068765;28;20039;-60
2022/05/15 04:34:11;;;;;;;9.55;4.50;;;12.50;99.90;;;;;;5067271;28;20133;-60
2022/05/15 04:36:37;;;;;;;10.60;3.92;;;12.60;99.90;;;;;;5067501;28;20021;-59
2022/05/15 04:39:04;;;;;;;8.65;3.78;;;12.60;99.90;;;;;;5070183;28;20029;-60
2022/05/15 04:41:30;;;;;;;7.45;3.70;;;12.70;99.90;;;;;;5070138;28;20036;-59
2022/05/15 04:43:56;;;;;;;12.98;4.03;;;12.70;99.90;;;;;;5070484;28;20017;-59
2022/05/15 04:46:22;;;;;;;8.82;3.85;;;12.80;99.90;;;;;;5070569;28;20021;-60
2022/05/15 04:48:48;;;;;;;6.70;3.40;;;12.90;99.90;;;;;;5070294;28;20132;-59
2022/05/15 04:51:14;;;;;;;10.55;4.80;;;12.90;99.90;;;;;;5069935;28;20618;-59
2022/05/15 04:53:39;;;;;;;5.40;3.75;;;13.00;99.90;;;;;;5070036;28;20115;-60
2022/05/15 04:56:05;;;;;;;7.03;3.80;;;13.00;99.90;;;;;;5070034;28;20059;-60
2022/05/15 04:58:31;;;;;;;8.88;4.00;;;13.00;99.90;;;;;;5070109;28;20060;-59
2022/05/15 05:00:56;;;;;;;7.47;3.97;;;13.10;99.90;;;;;;5069274;28;20013;-59
2022/05/15 05:03:22;;;;;;;8.40;4.47;;;13.10;99.90;;;;;;5066608;28;20728;-60
2022/05/15 05:05:48;;;;;;;5.95;3.85;;;13.10;99.90;;;;;;5066758;28;20147;-60
2022/05/15 05:08:14;;;;;;;5.82;3.83;;;13.10;99.90;;;;;;5066762;28;20036;-59
2022/05/15 05:10:40;;;;;;;9.85;3.83;;;13.20;99.90;;;;;;5066841;28;20043;-59
2022/05/15 05:13:06;;;;;;;7.15;3.30;;;13.20;99.90;;;;;;5069794;28;20032;-60
2022/05/15 05:15:32;;;;;;;11.85;5.10;;;13.30;99.90;;;;;;5070042;28;20389;-59
2022/05/15 05:17:58;;;;;;;7.80;3.88;;;13.40;99.90;;;;;;5067115;28;20465;-59
2022/05/15 05:20:24;;;;;;;8.75;3.92;;;13.40;99.90;;;;;;5067174;28;20099;-60
2022/05/15 05:22:49;;;;;;;7.38;3.70;;;13.50;99.90;;;;;;5066751;28;20032;-60
2022/05/15 05:25:16;;;;;;;7.10;3.78;;;13.50;99.90;;;;;;5066499;28;20495;-60
2022/05/15 05:27:42;;;;;;;6.00;3.53;;;13.60;99.90;;;;;;5069116;28;20047;-59
2022/05/15 05:30:13;;;;;;;9.75;3.60;;;13.60;99.90;;;;;;5070028;28;20056;-60
2022/05/15 05:32:38;;;;;;;6.50;4.07;;;13.70;99.90;;;;;;5066912;28;20074;-59
2022/05/15 05:35:05;;;;;;;9.05;3.95;;;13.60;99.90;;;;;;5066629;28;20029;-59
2022/05/15 05:37:31;;;;;;;6.45;3.58;;;13.60;99.90;;;;;;5051016;28;20033;-59
2022/05/15 05:39:57;;;;;;;9.30;3.30;;;13.70;99.90;;;;;;5069907;28;20431;-60
2022/05/15 05:42:22;;;;;;;8.00;4.05;;;13.70;99.90;;;;;;5069673;28;20064;-59
2022/05/15 05:44:48;;;;;;;10.57;4.35;;;13.60;99.90;;;;;;5069889;28;20432;-59
2022/05/15 05:47:14;;;;;;;9.85;4.53;;;13.70;99.90;;;;;;5069569;28;20083;-59
2022/05/15 05:49:39;;;;;;;6.30;3.67;;;13.70;99.90;;;;;;5069449;28;20493;-59
2022/05/15 05:52:05;;;;;;;5.80;3.55;;;13.70;99.90;;;;;;5067097;28;20029;-60
2022/05/15 05:54:31;;;;;;;11.63;4.85;;;13.70;99.90;;;;;;5065649;28;20032;-60
2022/05/15 05:56:58;;;;;;;9.52;4.05;;;13.60;99.90;;;;;;5049850;28;20482;-60
2022/05/15 05:59:24;;;;;;;6.65;4.30;;;13.60;99.90;;;;;;5049972;28;20055;-59
2022/05/15 06:01:50;;;;;;;8.70;4.07;;;13.60;99.90;;;;;;5047821;28;20206;-60
2022/05/15 06:07:00;;;;;;;7.38;4.05;;;13.60;99.90;;;;;;5047643;28;20082;-60
2022/05/15 06:09:25;;;;;;;6.88;3.83;;;13.50;99.90;;;;;;5031578;28;20029;-60
2022/05/15 06:11:51;;;;;;;8.05;4.00;;;13.40;99.90;;;;;;5059229;28;20487;-59
2022/05/15 06:14:16;;;;;;;9.90;4.47;;;13.40;99.90;;;;;;5067481;28;20036;-60
2022/05/15 06:16:42;;;;;;;9.25;4.30;;;13.50;99.90;;;;;;5070671;28;20025;-59
2022/05/15 06:19:08;;;;;;;8.48;4.20;;;13.50;99.90;;;;;;5070120;28;20423;-60
2022/05/15 06:21:34;;;;;;;11.18;4.40;;;13.50;99.90;;;;;;5073272;28;20075;-60
2022/05/15 06:23:59;;;;;;;9.20;4.80;;;13.50;99.90;;;;;;5071473;28;20433;-60
2022/05/15 06:26:25;;;;;;;10.68;4.85;;;13.60;99.90;;;;;;5069766;28;20594;-60
2022/05/15 06:28:50;;;;;;;14.63;4.60;;;13.60;99.90;;;;;;5069863;28;20093;-60
2022/05/15 06:31:16;;;;;;;10.93;5.50;;;13.60;99.90;;;;;;5070243;28;20409;-60
2022/05/15 06:33:42;;;;;;;8.73;4.30;;;13.60;99.90;;;;;;5069785;28;20121;-60
2022/05/15 06:36:07;;;;;;;11.52;5.32;;;13.80;99.90;;;;;;5070583;28;20023;-59
2022/05/15 06:38:33;;;;;;;10.52;4.90;;;13.90;99.90;;;;;;5072979;28;20362;-59
2022/05/15 06:40:59;;;;;;;7.22;4.38;;;13.90;99.90;;;;;;5072523;28;20029;-61
2022/05/15 06:43:24;;;;;;;7.43;4.45;;;14.10;99.90;;;;;;5072637;28;20032;-59
2022/05/15 06:45:50;;;;;;;10.38;4.50;;;14.10;99.90;;;;;;5072635;28;20029;-59
2022/05/15 06:48:16;;;;;;;7.32;4.95;;;14.20;99.90;;;;;;5072518;28;20040;-58
2022/05/15 06:50:42;;;;;;;7.47;4.75;;;14.30;99.90;;;;;;5072570;28;20197;-59
2022/05/15 06:53:14;;;;;;;10.60;4.88;;;14.60;99.90;;;;;;5072527;28;20047;-59
2022/05/15 06:57:28;;;;;;;9.77;4.85;;;14.80;99.90;;;;;;5072637;28;20397;-60
2022/05/15 06:58:26;;;;;;;8.95;4.22;;;14.90;99.90;;;;;;5072600;28;20028;-59
2022/05/15 07:00:51;;;;;;;9.50;4.68;;;15.10;99.90;;;;;;5066404;28;20094;-59
2022/05/15 07:03:17;;;;;;;10.73;4.15;;;15.30;99.90;;;;;;5051986;28;20024;-60
2022/05/15 07:05:42;;;;;;;11.48;4.57;;;15.40;99.90;;;;;;5049665;28;20040;-59
2022/05/15 07:08:10;;;;;;;9.45;4.68;;;15.60;99.90;;;;;;5050568;28;20041;-59
2022/05/15 07:10:35;;;;;;;8.30;4.10;;;15.70;99.90;;;;;;5052604;28;20086;-60
2022/05/15 07:13:01;;;;;;;7.13;3.65;;;15.90;99.90;;;;;;5072028;28;20036;-60
2022/05/15 07:15:27;;;;;;;14.68;4.53;;;16.00;99.90;;;;;;5072070;28;20028;-60
2022/05/15 07:17:53;;;;;;;9.43;4.88;;;16.20;99.90;;;;;;5072091;28;20515;-60
2022/05/15 07:20:19;;;;;;;12.73;4.82;;;16.30;99.90;;;;;;5072282;28;20028;-60
2022/05/15 07:22:44;;;;;;;11.07;4.72;;;16.30;99.90;;;;;;5072026;28;20052;-60
2022/05/15 07:25:10;;;;;;;11.70;5.20;;;16.50;99.90;;;;;;5071614;28;20071;-60
2022/05/15 07:27:36;;;;;;;10.98;4.88;;;16.60;99.90;;;;;;5071600;28;20036;-61
2022/05/15 07:30:02;;;;;;;10.40;5.20;;;16.80;99.90;;;;;;5071935;28;20040;-61
2022/05/15 07:32:28;;;;;;;13.07;4.28;;;16.90;99.90;;;;;;5071810;28;20492;-61
2022/05/15 07:34:54;;;;;;;10.25;4.95;;;17.00;99.90;;;;;;5071815;28;20028;-60
2022/05/15 07:37:19;;;;;;;8.32;4.45;;;17.10;99.90;;;;;;5071644;28;20051;-59
2022/05/15 07:39:45;;;;;;;10.50;5.03;;;17.10;99.90;;;;;;5071664;28;20032;-59
2022/05/15 07:42:11;;;;;;;9.60;5.13;;;17.10;99.90;;;;;;5071352;28;20037;-59
2022/05/15 07:44:37;;;;;;;8.77;5.20;;;17.10;99.90;;;;;;5071433;28;20036;-60
2022/05/15 07:47:02;;;;;;;6.80;4.60;;;17.10;99.90;;;;;;5071531;28;20060;-62
2022/05/15 07:49:29;;;;;;;9.15;4.40;;;17.00;99.90;;;;;;5068172;28;20044;-62
2022/05/15 07:51:55;;;;;;;10.73;5.28;;;17.00;99.90;;;;;;5071482;28;20024;-61
2022/05/15 07:54:20;;;;;;;9.27;4.53;;;17.00;99.90;;;;;;5071556;28;20039;-62
2022/05/15 07:56:46;;;;;;;11.13;5.20;;;16.90;99.90;;;;;;5071362;28;20023;-62
2022/05/15 07:59:13;;;;;;;9.10;4.78;;;16.80;99.90;;;;;;5071474;28;20028;-60
2022/05/15 08:01:39;;;;;;;7.35;4.20;;;16.70;99.90;;;;;;5071399;28;20021;-61
2022/05/15 08:04:05;;;;;;;10.32;3.83;;;16.70;99.90;;;;;;5071102;28;20059;-60
2022/05/15 08:09:15;;;;;;;10.73;4.20;;;16.60;99.90;;;;;;5070993;28;20047;-60
2022/05/15 08:11:40;;;;;;;7.05;4.60;;;16.50;99.90;;;;;;5070666;28;20024;-60
2022/05/15 08:14:08;;;;;;;7.05;4.10;;;16.40;99.90;;;;;;5067856;28;20041;-60
2022/05/15 08:16:35;;;;;;;7.75;4.05;;;16.30;99.90;;;;;;5070990;28;20465;-60
2022/05/15 08:24:31;;;;;;;9.63;4.05;;;16.00;99.90;;;;;;5071158;28;20097;-60
2022/05/15 08:26:57;;;;;;;8.02;4.10;;;15.80;99.90;;;;;;5070620;28;20461;-60
2022/05/15 08:29:22;;;;;;;6.40;3.85;;;15.60;99.90;;;;;;5070765;28;20059;-60
2022/05/15 08:31:48;;;;;;;8.93;4.38;;;15.50;99.90;;;;;;5070245;28;20036;-60
2022/05/15 08:34:15;;;;;;;7.45;4.05;;;15.40;99.90;;;;;;5070632;28;20170;-60
2022/05/15 08:36:42;;;;;;;7.80;5.03;;;15.30;99.90;;;;;;5069616;28;20484;-60
2022/05/15 08:39:14;;;;;;;8.48;5.10;;;15.30;99.90;;;;;;5070380;28;20039;-60
2022/05/15 08:42:01;;;;;;;10.55;4.75;;;15.20;99.90;;;;;;5069923;28;20029;-61
2022/05/15 08:44:36;;;;;;;9.57;5.38;;;15.20;99.90;;;;;;5070487;28;20032;-61
2022/05/15 08:47:21;;;;;;;10.52;5.20;;;15.10;99.90;;;;;;5069653;28;20035;-61
2022/05/15 08:50:02;;;;;;;12.00;5.93;;;15.10;99.90;;;;;;5049993;28;20052;-62
2022/05/15 08:52:52;;;;;;;10.55;4.93;;;15.00;99.90;;;;;;5050315;28;20025;-63
2022/05/15 08:55:33;;;;;;;10.55;4.78;;;15.00;99.90;;;;;;5050098;28;20029;-62
2022/05/15 08:58:05;;;;;;;10.60;4.78;;;15.00;99.90;;;;;;5050066;28;20100;-62
2022/05/15 09:00:37;;;;;;;9.73;4.97;;;15.00;99.90;;;;;;5050184;28;20595;-62
2022/05/15 09:03:29;;;;;;;7.97;4.97;;;15.00;99.90;;;;;;5050108;28;20029;-62
2022/05/15 09:06:15;;;;;;;10.15;4.85;;;15.10;99.90;;;;;;5050296;28;20043;-62
2022/05/15 09:09:00;;;;;;;11.60;5.53;;;15.00;99.90;;;;;;5050325;28;20086;-62
2022/05/15 09:11:36;;;;;;;7.75;5.32;;;15.00;99.90;;;;;;5057098;28;20024;-62
2022/05/15 09:14:29;;;;;;;10.48;6.00;;;15.00;99.90;;;;;;5070061;28;20035;-62
2022/05/15 09:17:16;;;;;;;7.93;5.35;;;15.10;99.90;;;;;;5069820;28;20482;-62
2022/05/15 09:19:42;;;;;;;14.93;5.18;;;15.20;99.90;;;;;;5070416;28;20032;-62
2022/05/15 09:22:12;;;;;;;8.13;4.85;;;15.30;99.90;;;;;;5069606;28;20393;-62
2022/05/15 09:24:51;;;;;;;9.60;5.55;;;15.50;99.90;;;;;;5069796;28;20021;-62
2022/05/15 09:27:25;;;;;;;12.48;6.07;;;15.70;99.90;;;;;;5069750;28;20040;-62
2022/05/15 09:29:56;;;;;;;13.18;6.40;;;16.00;99.90;;;;;;5069868;28;20028;-62
2022/05/15 09:32:38;;;;;;;12.43;6.10;;;16.20;99.90;;;;;;5066637;28;20016;-62
2022/05/15 09:35:06;;;;;;;12.18;6.45;;;16.40;99.90;;;;;;5066140;28;20028;-62
2022/05/15 09:40:39;;;;;;;10.02;5.75;;;16.60;99.90;;;;;;5066481;28;20051;-60
2022/05/15 09:45:57;;;;;;;7.95;4.50;;;17.00;99.90;;;;;;5049871;28;20036;-59
2022/05/15 09:48:35;;;;;;;9.80;5.03;;;17.10;99.90;;;;;;5051079;28;20044;-60
2022/05/15 09:51:04;;;;;;;10.15;5.25;;;17.30;99.90;;;;;;5053655;28;20048;-61
2022/05/15 09:53:34;;;;;;;7.97;5.00;;;17.50;99.90;;;;;;5053396;28;20032;-62
2022/05/15 09:56:03;;;;;;;9.43;4.50;;;18.00;99.90;;;;;;5053093;28;20112;-60
2022/05/15 09:58:41;;;;;;;8.18;4.40;;;18.60;99.90;;;;;;5053423;28;20025;-60
2022/05/15 10:01:18;;;;;;;5.82;4.40;;;19.20;99.90;;;;;;5053454;28;20017;-60
2022/05/15 10:03:49;;;;;;;8.52;4.63;;;18.90;99.90;;;;;;5053260;28;20385;-59
2022/05/15 10:06:19;;;;;;;9.07;4.25;;;18.80;99.90;;;;;;5053433;28;20021;-60
2022/05/15 10:08:46;;;;;;;8.65;4.32;;;18.60;99.90;;;;;;5053128;28;20029;-60
2022/05/15 10:11:19;;;;;;;7.75;4.55;;;18.60;99.90;;;;;;5058532;28;20033;-60
2022/05/15 10:13:54;;;;;;;8.63;3.53;;;18.40;99.90;;;;;;5073548;28;20048;-62
2022/05/15 10:16:48;;;;;;;7.15;4.15;;;18.30;99.90;;;;;;5073162;28;20067;-62
2022/05/15 10:19:29;;;;;;;7.53;3.67;;;18.30;99.90;;;;;;5072939;28;20027;-61
2022/05/15 10:22:04;;;;;;;;;;;18.20;99.90;;;;;;5073485;28;20028;-62
2022/05/15 10:24:35;;;;;;;8.25;4.00;;;18.10;99.90;;;;;;5073085;28;20281;-62
2022/05/15 10:27:13;;;;;;;5.43;3.63;;;17.90;99.90;;;;;;5072604;28;20086;-62
2022/05/15 10:30:08;;;;;;;8.10;4.18;;;17.80;99.90;;;;;;5072985;28;20028;-62
2022/05/15 10:32:41;;;;;;;7.53;4.10;;;17.80;99.90;;;;;;5072858;28;20032;-62
2022/05/15 10:35:13;;;;;;;6.90;3.05;;;17.70;99.90;;;;;;5072700;28;20064;-62
2022/05/15 10:38:03;;;;;;;7.93;3.60;;;17.60;99.90;;;;;;5072542;28;20037;-62
2022/05/15 10:40:50;;;;;;;6.73;3.57;;;17.60;99.90;;;;;;5072748;28;20033;-62
2022/05/15 10:43:40;;;;;;;5.35;2.53;;;17.70;99.90;;;;;;5052565;28;20616;-62
2022/05/15 10:46:19;;;;;;;6.53;2.90;;;17.70;99.90;;;;;;5052826;28;20040;-62
2022/05/15 10:48:54;;;;;;;8.15;3.38;;;17.70;99.90;;;;;;5052238;28;20559;-58
2022/05/15 10:51:35;;;;;;;7.07;3.58;;;17.70;99.90;;;;;;5052608;28;20066;-58
2022/05/15 10:57:30;;;;;;;6.65;3.88;;;17.70;99.90;;;;;;5052516;28;20589;-61
2022/05/15 11:00:43;;;;;;;7.40;3.15;;;17.60;99.90;;;;;;5049031;28;20474;-60
2022/05/15 11:03:45;;;;;;;5.05;3.15;;;17.60;99.90;;;;;;5003329;28;20041;-61
2022/05/15 11:06:32;;;;;;;4.93;3.75;;;17.60;99.90;;;;;;5048636;28;20044;-59
2022/05/15 11:09:30;;;;;;;6.25;3.70;;;17.60;99.90;;;;;;5048722;28;20151;-62
2022/05/15 11:12:15;;;;;;;6.38;4.13;;;17.60;99.90;;;;;;5033804;28;20058;-63
2022/05/15 11:15:06;;;;;;;5.47;3.58;;;17.60;99.90;;;;;;5069006;28;20040;-63
2022/05/15 11:17:46;;;;;;;5.00;3.42;;;17.70;99.90;;;;;;5062109;28;20036;-62
2022/05/15 11:20:28;;;;;;;4.75;3.28;;;17.60;99.90;;;;;;5066491;28;20020;-62
2022/05/15 11:23:26;;;;;;;8.70;4.32;;;17.80;99.90;;;;;;5048531;28;20032;-62
2022/05/15 11:26:22;;;;;;;6.28;3.63;;;17.90;99.90;;;;;;5067852;28;20489;-60
2022/05/15 11:28:53;;;;;;;7.60;4.13;;;17.90;99.90;;;;;;5066675;28;20405;-62
2022/05/15 11:31:22;;;;;;;9.02;3.85;;;17.80;99.90;;;;;;5068399;28;20031;-60
2022/05/15 11:33:57;;;;;;;7.80;4.45;;;17.70;99.90;;;;;;5068307;28;20043;-59
2022/05/15 11:36:26;;;;;;;8.63;4.15;;;17.60;99.90;;;;;;5069306;28;20043;-59
2022/05/15 11:39:22;;;;;;;5.55;3.80;;;17.60;99.90;;;;;;5069347;28;20036;-60
2022/05/15 11:42:30;;;;;;;8.55;3.92;;;17.60;99.90;;;;;;5068803;28;20469;-61
2022/05/15 11:44:38;;;;;;;7.38;4.38;;;17.50;99.90;;;;;;5054296;28;20020;-61
2022/05/15 11:47:34;;;;;;;6.88;3.95;;;17.50;99.90;;;;;;5068249;28;20021;-60
2022/05/15 11:50:30;;;;;;;5.97;3.85;;;17.50;99.90;;;;;;5068370;28;20060;-61
2022/05/15 11:52:56;;;;;;;7.05;4.68;;;17.50;99.90;;;;;;5069263;28;20044;-61
2022/05/15 11:55:49;;;;;;;7.90;4.63;;;17.40;99.90;;;;;;5071076;28;20016;-61
2022/05/15 11:58:36;;;;;;;8.38;5.32;;;17.30;99.90;;;;;;5067829;28;20389;-62
2022/05/15 12:01:10;;;;;;;9.02;4.78;;;17.30;99.90;;;;;;5068097;28;20078;-61
2022/05/15 12:03:39;;;;;;;10.52;5.10;;;17.30;99.90;;;;;;5070062;28;20064;-61
2022/05/15 12:06:11;;;;;;;13.00;5.55;;;17.30;99.90;;;;;;5068385;28;20473;-62
2022/05/15 12:08:39;;;;;;;10.55;5.20;;;17.20;99.90;;;;;;5068132;28;20040;-61
2022/05/15 12:11:31;;;;;;;8.10;4.78;;;17.30;99.90;;;;;;5067798;28;20044;-61
2022/05/15 12:14:00;;;;;;;12.02;5.43;;;17.40;99.90;;;;;;5059932;28;20046;-62
2022/05/15 12:16:33;;;;;;;9.63;5.55;;;17.50;99.90;;;;;;5067690;28;20362;-61
2022/05/15 12:19:15;;;;;;;13.05;5.15;;;17.60;99.90;;;;;;5067725;28;20036;-62
2022/05/15 12:21:46;;;;;;;11.18;5.57;;;17.70;99.90;;;;;;5067601;28;20033;-62
2022/05/15 12:24:27;;;;;;;6.22;4.90;;;17.90;99.90;;;;;;5067784;28;20029;-63
2022/05/15 12:27:18;;;;;;;9.27;5.57;;;18.00;99.90;;;;;;5064109;28;20090;-62
2022/05/15 12:30:03;;;;;;;14.02;6.35;;;18.10;99.90;;;;;;5067424;28;20059;-62
2022/05/15 12:32:54;;;;;;;7.95;5.47;;;18.30;99.90;;;;;;5067526;28;20032;-62
2022/05/15 12:35:33;;;;;;;9.90;5.80;;;18.50;99.90;;;;;;5049437;28;20481;-62
2022/05/15 12:38:05;;;;;;;9.38;5.88;;;18.70;99.90;;;;;;5067668;28;20040;-62
2022/05/15 12:40:34;;;;;;;11.05;5.63;;;18.80;99.90;;;;;;5067317;28;20024;-62
2022/05/15 12:43:02;;;;;;;8.52;5.32;;;18.90;99.90;;;;;;5047277;28;20035;-62
2022/05/15 12:45:32;;;;;;;9.65;5.22;;;18.90;99.90;;;;;;5047400;28;20082;-62
2022/05/15 12:48:09;;;;;;;10.35;5.03;;;19.00;99.90;;;;;;5047321;28;20124;-62
2022/05/15 12:51:09;;;;;;;8.95;5.28;;;18.90;99.90;;;;;;5047299;28;20057;-62
2022/05/15 12:53:45;;;;;;;8.93;4.70;;;18.80;99.90;;;;;;5047430;28;20068;-62
2022/05/15 12:56:18;;;;;;;9.55;6.43;;;18.70;99.90;;;;;;5047094;28;20266;-63
2022/05/15 12:58:49;;;;;;;9.65;5.45;;;18.60;99.90;;;;;;5047412;28;20495;-62
2022/05/15 13:01:16;;;;;;;7.43;4.75;;;18.40;99.90;;;;;;5047017;28;20063;-62
2022/05/15 13:03:49;;;;;;;9.18;5.53;;;18.30;99.90;;;;;;5047104;28;20040;-62
2022/05/15 13:06:19;;;;;;;10.90;5.05;;;18.50;99.90;;;;;;5046963;28;20072;-62
2022/05/15 13:08:49;;;;;;;11.18;5.50;;;18.50;99.90;;;;;;5046683;28;20037;-63
2022/05/15 13:11:20;;;;;;;9.50;5.87;;;18.60;99.90;;;;;;5052389;28;20477;-62
2022/05/15 13:13:47;;;;;;;8.80;5.22;;;18.80;99.90;;;;;;5066549;28;20035;-62
2022/05/15 13:16:20;;;;;;;15.98;7.55;;;18.90;99.90;;;;;;5066929;28;20781;-62
2022/05/15 13:18:48;;;;;;;9.20;5.53;;;19.20;99.90;;;;;;5067252;28;20028;-62
2022/05/15 13:21:28;;;;;;;8.73;4.97;;;19.10;99.90;;;;;;5067104;28;20028;-63
2022/05/15 13:23:54;;;;;;;9.20;5.18;;;19.10;99.90;;;;;;5066376;28;20056;-62
2022/05/15 13:26:25;;;;;;;9.40;5.28;;;19.10;99.90;;;;;;5066650;28;20455;-62